createdAt,value
2023-01-29T00:00:14.505Z,-0.90
2023-01-29T00:02:43.457Z,-0.95
2023-01-29T00:05:27.017Z,-0.96
2023-01-29T00:07:56.660Z,-0.90
2023-01-29T00:10:25.645Z,-0.96
2023-01-29T00:12:54.127Z,-0.95
2023-01-29T00:15:22.647Z,-0.92
2023-01-29T00:17:51.192Z,-0.98
2023-01-29T00:20:21.108Z,-1.00
2023-01-29T00:22:49.608Z,-0.91
2023-01-29T00:25:18.374Z,-0.78
2023-01-29T00:27:46.849Z,-0.84
2023-01-29T00:30:19.613Z,-0.88
2023-01-29T00:32:48.487Z,-0.96
2023-01-29T00:35:17.131Z,-0.98
2023-01-29T00:37:47.014Z,-0.98
2023-01-29T00:40:16.010Z,-0.99
2023-01-29T00:43:03.593Z,-0.88
2023-01-29T00:45:32.166Z,-0.79
2023-01-29T00:48:00.967Z,-0.75
2023-01-29T00:50:29.479Z,-0.76
2023-01-29T00:52:59.358Z,-0.73
2023-01-29T00:55:27.882Z,-0.77
2023-01-29T00:57:56.377Z,-0.80
2023-01-29T01:00:25.953Z,-0.84
2023-01-29T01:03:05.948Z,-0.85
2023-01-29T01:05:34.875Z,-0.74
2023-01-29T01:08:25.092Z,-0.61
2023-01-29T01:11:00.089Z,-0.61
2023-01-29T01:13:29.085Z,-0.57
2023-01-29T01:15:57.704Z,-0.58
2023-01-29T01:18:26.524Z,-0.56
2023-01-29T01:20:59.702Z,-0.62
2023-01-29T01:23:29.807Z,-0.57
2023-01-29T01:25:58.357Z,-0.55
2023-01-29T01:28:27.179Z,-0.58
2023-01-29T01:30:56.024Z,-0.52
2023-01-29T01:33:24.888Z,-0.65
2023-01-29T01:35:53.458Z,-0.68
2023-01-29T01:38:21.930Z,-0.69
2023-01-29T01:40:51.779Z,-0.64
2023-01-29T01:43:20.316Z,-0.64
2023-01-29T01:45:48.839Z,-0.63
2023-01-29T01:48:21.433Z,-0.62
2023-01-29T01:50:53.462Z,-0.56
2023-01-29T01:53:27.249Z,-0.56
2023-01-29T01:56:09.054Z,-0.52
2023-01-29T01:58:42.117Z,-0.52
2023-01-29T02:01:11.779Z,-0.47
2023-01-29T02:04:03.297Z,-0.49
2023-01-29T02:06:49.721Z,-0.48
2023-01-29T02:09:36.016Z,-0.45
2023-01-29T02:12:09.574Z,-0.43
2023-01-29T02:14:40.273Z,-0.48
2023-01-29T02:17:11.455Z,-0.47
2023-01-29T02:19:48.377Z,-0.43
2023-01-29T02:22:43.083Z,-0.44
2023-01-29T02:25:41.341Z,-0.45
2023-01-29T02:28:22.744Z,-0.46
2023-01-29T02:31:00.565Z,-0.41
2023-01-29T02:33:42.421Z,-0.51
2023-01-29T02:36:20.783Z,-0.57
2023-01-29T02:39:03.399Z,-0.58
2023-01-29T02:41:39.826Z,-0.48
2023-01-29T02:44:23.160Z,-0.56
2023-01-29T02:46:58.703Z,-0.44
2023-01-29T02:49:34.446Z,-0.51
2023-01-29T02:52:07.958Z,-0.39
2023-01-29T02:54:45.634Z,-0.43
2023-01-29T02:57:21.889Z,-0.49
2023-01-29T02:59:56.792Z,-0.50
2023-01-29T03:02:32.328Z,-0.43
2023-01-29T03:05:05.097Z,-0.52
2023-01-29T03:07:46.305Z,-0.54
2023-01-29T03:10:19.895Z,-0.46
2023-01-29T03:12:56.323Z,-0.41
2023-01-29T03:15:29.714Z,-0.47
2023-01-29T03:18:04.683Z,-0.52
2023-01-29T03:20:38.570Z,-0.34
2023-01-29T03:23:12.892Z,-0.41
2023-01-29T03:26:00.306Z,-0.41
2023-01-29T03:28:48.444Z,-0.33
2023-01-29T03:31:37.154Z,-0.29
2023-01-29T03:34:16.640Z,-0.29
2023-01-29T03:36:55.743Z,-0.25
2023-01-29T03:39:29.255Z,-0.33
2023-01-29T03:42:03.748Z,-0.32
2023-01-29T03:44:40.497Z,-0.31
2023-01-29T03:47:19.866Z,-0.29
2023-01-29T03:49:58.766Z,-0.30
2023-01-29T03:52:35.043Z,-0.31
2023-01-29T03:55:10.696Z,-0.36
2023-01-29T03:57:45.547Z,-0.38
2023-01-29T04:00:19.377Z,-0.35
2023-01-29T04:02:56.633Z,-0.24
2023-01-29T04:05:29.643Z,-0.25
2023-01-29T04:08:04.096Z,-0.25
2023-01-29T04:10:32.861Z,-0.38
2023-01-29T04:13:05.387Z,-0.34
2023-01-29T04:15:40.179Z,-0.42
2023-01-29T04:18:11.314Z,-0.47
2023-01-29T04:20:39.865Z,-0.44
2023-01-29T04:23:08.646Z,-0.43
2023-01-29T04:25:44.425Z,-0.49
2023-01-29T04:28:20.155Z,-0.43
2023-01-29T04:30:55.115Z,-0.42
2023-01-29T04:33:34.014Z,-0.43
2023-01-29T04:36:18.721Z,-0.53
2023-01-29T04:38:56.132Z,-0.49
2023-01-29T04:41:31.080Z,-0.55
2023-01-29T04:44:03.427Z,-0.56
2023-01-29T04:46:40.223Z,-0.58
2023-01-29T04:49:19.500Z,-0.56
2023-01-29T04:51:57.626Z,-0.61
2023-01-29T04:54:37.266Z,-0.53
2023-01-29T04:57:13.225Z,-0.58
2023-01-29T04:59:46.418Z,-0.52
2023-01-29T05:02:15.320Z,-0.46
2023-01-29T05:04:47.384Z,-0.47
2023-01-29T05:07:17.054Z,-0.54
2023-01-29T05:09:46.623Z,-0.43
2023-01-29T05:12:18.270Z,-0.43
2023-01-29T05:14:48.553Z,-0.46
2023-01-29T05:17:19.664Z,-0.52
2023-01-29T05:19:49.893Z,-0.47
2023-01-29T05:22:22.676Z,-0.44
2023-01-29T05:24:51.324Z,-0.48
2023-01-29T05:27:41.188Z,-0.50
2023-01-29T05:30:11.418Z,-0.47
2023-01-29T05:32:39.892Z,-0.43
2023-01-29T05:35:10.160Z,-0.40
2023-01-29T05:37:38.513Z,-0.52
2023-01-29T05:40:08.986Z,-0.56
2023-01-29T05:42:37.313Z,-0.51
2023-01-29T05:45:06.510Z,-0.49
2023-01-29T05:47:34.904Z,-0.51
2023-01-29T05:50:03.564Z,-0.51
2023-01-29T05:52:33.445Z,-0.42
2023-01-29T05:55:01.793Z,-0.41
2023-01-29T05:57:30.207Z,-0.28
2023-01-29T05:59:58.614Z,-0.36
2023-01-29T06:02:27.035Z,-0.31
2023-01-29T06:04:55.367Z,-0.34
2023-01-29T06:07:23.703Z,-0.30
2023-01-29T06:09:53.470Z,-0.20
2023-01-29T06:12:21.813Z,-0.16
2023-01-29T06:14:50.169Z,-0.25
2023-01-29T06:17:18.572Z,-0.28
2023-01-29T06:19:46.954Z,-0.30
2023-01-29T06:22:15.341Z,-0.20
2023-01-29T06:24:43.702Z,-0.28
2023-01-29T06:27:13.372Z,-0.21
2023-01-29T06:29:41.757Z,-0.20
2023-01-29T06:32:10.133Z,-0.11
2023-01-29T06:34:38.601Z,-0.11
2023-01-29T06:37:07.885Z,-0.10
2023-01-29T06:39:36.578Z,-0.07
2023-01-29T06:42:05.072Z,-0.12
2023-01-29T06:44:35.980Z,-0.09
2023-01-29T06:47:04.350Z,-0.06
2023-01-29T06:49:32.774Z,-0.09
2023-01-29T06:52:01.142Z,-0.12
2023-01-29T06:54:29.595Z,0.00
2023-01-29T06:56:57.945Z,-0.07
2023-01-29T06:59:26.285Z,-0.04
2023-01-29T07:01:56.149Z,-0.04
2023-01-29T07:04:24.781Z,0.05
2023-01-29T07:06:53.832Z,-0.02
2023-01-29T07:09:22.204Z,0.02
2023-01-29T07:11:50.582Z,0.02
2023-01-29T07:14:18.951Z,0.04
2023-01-29T07:16:47.445Z,-0.07
2023-01-29T07:19:17.280Z,-0.04
2023-01-29T07:21:45.686Z,0.06
2023-01-29T07:24:14.260Z,-0.04
2023-01-29T07:26:42.660Z,-0.02
2023-01-29T07:29:11.154Z,0.04
2023-01-29T07:31:39.634Z,0.06
2023-01-29T07:34:08.017Z,0.06
2023-01-29T07:36:38.132Z,0.01
2023-01-29T07:39:06.525Z,-0.08
2023-01-29T07:41:34.840Z,-0.09
2023-01-29T07:44:03.246Z,-0.03
2023-01-29T07:46:31.743Z,0.01
2023-01-29T07:49:00.416Z,0.03
2023-01-29T07:51:28.776Z,0.00
2023-01-29T07:53:58.496Z,0.07
2023-01-29T07:56:27.069Z,0.10
2023-01-29T07:58:55.496Z,0.05
2023-01-29T08:01:24.014Z,0.05
2023-01-29T08:03:52.708Z,0.06
2023-01-29T08:06:21.172Z,0.06
2023-01-29T08:08:49.540Z,0.05
2023-01-29T08:11:19.393Z,0.10
2023-01-29T08:13:47.834Z,0.03
2023-01-29T08:16:16.259Z,0.09
2023-01-29T08:18:47.656Z,0.07
2023-01-29T08:21:16.598Z,0.03
2023-01-29T08:23:44.992Z,0.03
2023-01-29T08:26:13.409Z,0.05
2023-01-29T08:28:43.219Z,0.08
2023-01-29T08:31:15.602Z,0.08
2023-01-29T08:33:44.328Z,0.15
2023-01-29T08:36:12.892Z,0.15
2023-01-29T08:38:41.617Z,0.08
2023-01-29T08:41:09.965Z,0.16
2023-01-29T08:43:38.675Z,0.18
2023-01-29T08:46:08.995Z,0.20
2023-01-29T08:48:37.517Z,0.25
2023-01-29T08:51:06.162Z,0.17
2023-01-29T08:53:34.571Z,0.25
2023-01-29T08:56:02.964Z,0.24
2023-01-29T08:58:31.307Z,0.25
2023-01-29T09:01:08.422Z,0.29
2023-01-29T09:03:37.196Z,0.27
2023-01-29T09:06:05.871Z,0.42
2023-01-29T09:08:34.375Z,0.47
2023-01-29T09:11:02.787Z,0.47
2023-01-29T09:13:31.338Z,0.46
2023-01-29T09:16:01.057Z,0.45
2023-01-29T09:18:31.692Z,0.44
2023-01-29T09:21:00.047Z,0.47
2023-01-29T09:23:28.565Z,0.57
2023-01-29T09:25:57.432Z,0.52
2023-01-29T09:28:26.081Z,0.50
2023-01-29T09:30:54.604Z,0.57
2023-01-29T09:33:24.674Z,0.66
2023-01-29T09:35:54.517Z,0.68
2023-01-29T09:38:22.848Z,0.68
2023-01-29T09:40:59.574Z,0.66
2023-01-29T09:43:43.810Z,0.70
2023-01-29T09:46:19.322Z,0.74
2023-01-29T09:48:49.373Z,0.77
2023-01-29T09:51:29.528Z,0.76
2023-01-29T09:54:10.290Z,0.87
2023-01-29T09:56:38.769Z,0.95
2023-01-29T09:59:07.142Z,0.99
2023-01-29T10:01:43.247Z,0.99
2023-01-29T10:04:40.921Z,1.13
2023-01-29T10:07:35.076Z,1.10
2023-01-29T10:10:16.030Z,1.10
2023-01-29T10:12:58.365Z,1.16
2023-01-29T10:15:37.362Z,1.08
2023-01-29T10:18:34.387Z,1.21
2023-01-29T10:21:18.177Z,1.26
2023-01-29T10:23:51.850Z,1.29
2023-01-29T10:26:23.342Z,1.42
2023-01-29T10:28:56.594Z,1.49
2023-01-29T10:31:32.765Z,1.55
2023-01-29T10:34:04.696Z,1.55
2023-01-29T10:36:37.725Z,1.59
2023-01-29T10:39:15.905Z,1.75
2023-01-29T10:42:03.507Z,1.71
2023-01-29T10:44:42.096Z,1.78
2023-01-29T10:47:35.783Z,1.83
2023-01-29T10:50:19.565Z,1.73
2023-01-29T10:53:04.536Z,1.77
2023-01-29T10:55:47.700Z,1.93
2023-01-29T10:58:27.420Z,1.90
2023-01-29T11:00:55.842Z,1.95
2023-01-29T11:03:28.478Z,1.94
2023-01-29T11:06:05.268Z,1.89
2023-01-29T11:08:41.361Z,2.05
2023-01-29T11:11:15.281Z,2.03
2023-01-29T11:13:47.182Z,2.01
2023-01-29T11:16:15.615Z,2.08
2023-01-29T11:18:56.271Z,2.11
2023-01-29T11:21:26.054Z,2.26
2023-01-29T11:24:07.812Z,2.26
2023-01-29T11:26:41.539Z,2.26
2023-01-29T11:29:45.783Z,2.36
2023-01-29T11:32:25.395Z,2.40
2023-01-29T11:35:02.286Z,2.42
2023-01-29T11:37:38.322Z,2.43
2023-01-29T11:40:39.200Z,2.41
2023-01-29T11:43:20.354Z,2.45
2023-01-29T11:45:51.336Z,2.42
2023-01-29T11:48:22.374Z,2.40
2023-01-29T11:50:55.693Z,2.42
2023-01-29T11:53:34.990Z,2.38
2023-01-29T11:56:08.355Z,2.43
2023-01-29T11:58:38.168Z,2.48
2023-01-29T12:01:06.863Z,2.47
2023-01-29T12:03:38.619Z,2.49
2023-01-29T12:06:09.526Z,2.43
2023-01-29T12:08:40.243Z,2.46
2023-01-29T12:11:11.339Z,2.51
2023-01-29T12:13:43.391Z,2.49
2023-01-29T12:16:22.602Z,2.52
2023-01-29T12:18:55.764Z,2.51
2023-01-29T12:21:31.587Z,2.62
2023-01-29T12:24:04.536Z,2.67
2023-01-29T12:26:37.096Z,2.71
2023-01-29T12:29:42.860Z,2.72
2023-01-29T12:32:23.332Z,2.73
2023-01-29T12:34:56.532Z,2.69
2023-01-29T12:37:32.127Z,2.72
2023-01-29T12:40:02.375Z,2.76
2023-01-29T12:42:30.910Z,2.73
2023-01-29T12:45:05.281Z,2.73
2023-01-29T12:47:36.817Z,2.72
2023-01-29T12:50:19.779Z,2.66
2023-01-29T12:52:51.239Z,2.67
2023-01-29T12:55:23.249Z,2.75
2023-01-29T12:57:56.907Z,2.63
2023-01-29T13:00:29.368Z,2.69
2023-01-29T13:03:05.276Z,2.64
2023-01-29T13:05:40.633Z,2.61
2023-01-29T13:08:18.673Z,2.61
2023-01-29T13:10:50.508Z,2.59
2023-01-29T13:13:27.786Z,2.67
2023-01-29T13:16:00.064Z,2.73
2023-01-29T13:18:41.234Z,2.70
2023-01-29T13:21:14.541Z,2.66
2023-01-29T13:23:47.090Z,2.59
2023-01-29T13:26:19.211Z,2.62
2023-01-29T13:28:49.194Z,2.72
2023-01-29T13:31:31.521Z,2.76
2023-01-29T13:34:10.903Z,2.78
2023-01-29T13:36:44.298Z,2.65
2023-01-29T13:39:23.913Z,2.67
2023-01-29T13:41:53.907Z,2.62
2023-01-29T13:44:27.347Z,2.73
2023-01-29T13:46:59.753Z,2.68
2023-01-29T13:49:34.318Z,2.66
2023-01-29T13:52:18.502Z,2.69
2023-01-29T13:54:57.297Z,2.58
2023-01-29T13:57:50.715Z,2.58
2023-01-29T14:00:55.503Z,2.55
2023-01-29T14:04:06.109Z,2.60
2023-01-29T14:06:47.512Z,2.57
2023-01-29T14:09:50.069Z,2.56
2023-01-29T14:12:36.240Z,2.49
2023-01-29T14:15:24.105Z,2.46
2023-01-29T14:17:59.609Z,2.45
2023-01-29T14:20:45.083Z,2.31
2023-01-29T14:23:28.352Z,2.33
2023-01-29T14:25:57.521Z,2.25
2023-01-29T14:28:30.545Z,2.20
2023-01-29T14:30:59.953Z,2.14
2023-01-29T14:33:34.241Z,2.11
2023-01-29T14:36:08.868Z,2.08
2023-01-29T14:38:38.000Z,2.05
2023-01-29T14:41:16.170Z,2.00
2023-01-29T14:43:44.573Z,2.06
2023-01-29T14:46:45.439Z,2.02
2023-01-29T14:49:13.872Z,2.02
2023-01-29T14:51:46.347Z,1.92
2023-01-29T14:54:23.800Z,1.83
2023-01-29T14:56:59.814Z,1.86
2023-01-29T14:59:34.582Z,1.79
2023-01-29T15:02:14.076Z,1.88
2023-01-29T15:04:49.211Z,1.90
2023-01-29T15:07:28.775Z,1.77
2023-01-29T15:10:22.529Z,1.81
2023-01-29T15:12:58.214Z,1.69
2023-01-29T15:15:37.407Z,1.77
2023-01-29T15:18:09.166Z,1.70
2023-01-29T15:20:39.691Z,1.65
2023-01-29T15:23:28.103Z,1.64
2023-01-29T15:25:58.770Z,1.68
2023-01-29T15:28:30.867Z,1.68
2023-01-29T15:31:01.936Z,1.67
2023-01-29T15:33:31.206Z,1.54
2023-01-29T15:36:08.800Z,1.56
2023-01-29T15:38:38.713Z,1.59
2023-01-29T15:41:18.656Z,1.56
2023-01-29T15:43:48.665Z,1.53
2023-01-29T15:46:23.052Z,1.50
2023-01-29T15:48:51.767Z,1.48
2023-01-29T15:51:22.816Z,1.51
2023-01-29T15:53:55.267Z,1.58
2023-01-29T15:56:28.905Z,1.56
2023-01-29T15:58:59.932Z,1.51
2023-01-29T16:01:29.119Z,1.52
2023-01-29T16:03:59.496Z,1.53
2023-01-29T16:06:28.673Z,1.48
2023-01-29T16:08:59.353Z,1.47
2023-01-29T16:11:27.892Z,1.51
2023-01-29T16:13:57.701Z,1.49
2023-01-29T16:16:27.096Z,1.52
2023-01-29T16:19:01.106Z,1.53
2023-01-29T16:21:33.204Z,1.54
2023-01-29T16:24:09.184Z,1.48
2023-01-29T16:26:39.444Z,1.53
2023-01-29T16:29:10.667Z,1.51
2023-01-29T16:31:40.758Z,1.52
2023-01-29T16:34:15.682Z,1.62
2023-01-29T16:36:47.580Z,1.61
2023-01-29T16:39:20.846Z,1.49
2023-01-29T16:42:20.803Z,1.58
2023-01-29T16:44:53.355Z,1.49
2023-01-29T16:47:32.415Z,1.46
2023-01-29T16:50:03.309Z,1.46
2023-01-29T16:52:33.972Z,1.44
2023-01-29T16:55:22.724Z,1.45
2023-01-29T16:57:54.452Z,1.54
2023-01-29T17:00:25.991Z,1.50
2023-01-29T17:02:57.971Z,1.53
2023-01-29T17:05:30.007Z,1.53
2023-01-29T17:07:59.508Z,1.51
2023-01-29T17:10:31.172Z,1.43
2023-01-29T17:13:03.259Z,1.45
2023-01-29T17:15:37.770Z,1.41
2023-01-29T17:18:13.076Z,1.49
2023-01-29T17:20:41.280Z,1.56
2023-01-29T17:23:10.148Z,1.61
2023-01-29T17:25:40.467Z,1.53
2023-01-29T17:28:12.214Z,1.50
2023-01-29T17:30:40.849Z,1.45
2023-01-29T17:33:14.109Z,1.59
2023-01-29T17:35:44.462Z,1.55
2023-01-29T17:38:24.929Z,1.50
2023-01-29T17:40:59.098Z,1.56
2023-01-29T17:43:27.540Z,1.44
2023-01-29T17:45:56.049Z,1.39
2023-01-29T17:48:25.860Z,1.53
2023-01-29T17:50:56.276Z,1.53
2023-01-29T17:53:30.478Z,1.43
2023-01-29T17:56:02.779Z,1.41
2023-01-29T17:58:31.156Z,1.37
2023-01-29T18:00:59.493Z,1.26
2023-01-29T18:03:28.162Z,1.30
2023-01-29T18:05:56.687Z,1.31
2023-01-29T18:08:30.081Z,1.34
2023-01-29T18:10:58.644Z,1.40
2023-01-29T18:13:28.478Z,1.44
2023-01-29T18:15:57.002Z,1.39
2023-01-29T18:18:25.902Z,1.35
2023-01-29T18:20:54.691Z,1.42
2023-01-29T18:23:23.352Z,1.39
2023-01-29T18:25:52.759Z,1.38
2023-01-29T18:28:21.132Z,1.30
2023-01-29T18:30:51.008Z,1.38
2023-01-29T18:33:19.562Z,1.41
2023-01-29T18:35:49.054Z,1.28
2023-01-29T18:38:18.368Z,1.24
2023-01-29T18:40:46.694Z,1.35
2023-01-29T18:43:15.329Z,1.32
2023-01-29T18:45:43.762Z,1.35
2023-01-29T18:48:14.142Z,1.38
2023-01-29T18:50:42.501Z,1.28
2023-01-29T18:53:10.865Z,1.29
2023-01-29T18:55:39.257Z,1.35
2023-01-29T18:58:26.380Z,1.36
2023-01-29T19:00:56.076Z,1.45
2023-01-29T19:03:26.235Z,1.48
2023-01-29T19:05:54.559Z,1.45
2023-01-29T19:08:22.914Z,1.45
2023-01-29T19:10:51.237Z,1.37
2023-01-29T19:13:19.610Z,1.48
2023-01-29T19:15:49.093Z,1.50
2023-01-29T19:18:17.453Z,1.51
2023-01-29T19:20:47.176Z,1.45
2023-01-29T19:23:15.506Z,1.41
2023-01-29T19:25:43.927Z,1.41
2023-01-29T19:28:12.671Z,1.45
2023-01-29T19:30:41.027Z,1.42
2023-01-29T19:33:10.626Z,1.39
2023-01-29T19:35:39.019Z,1.31
2023-01-29T19:38:09.309Z,1.30
2023-01-29T19:40:38.698Z,1.40
2023-01-29T19:43:07.098Z,1.39
2023-01-29T19:45:49.530Z,1.29
2023-01-29T19:48:21.309Z,1.34
2023-01-29T19:50:53.540Z,1.37
2023-01-29T19:53:23.602Z,1.29
2023-01-29T19:55:58.684Z,1.33
2023-01-29T19:58:27.278Z,1.39
2023-01-29T20:00:57.084Z,1.39
2023-01-29T20:03:26.364Z,1.48
2023-01-29T20:05:54.717Z,1.50
2023-01-29T20:08:24.984Z,1.50
2023-01-29T20:10:53.360Z,1.47
2023-01-29T20:13:21.773Z,1.44
2023-01-29T20:15:51.099Z,1.45
2023-01-29T20:18:20.207Z,1.48
2023-01-29T20:20:50.321Z,1.49
2023-01-29T20:23:36.677Z,1.55
2023-01-29T20:26:08.222Z,1.46
2023-01-29T20:28:36.889Z,1.50
2023-01-29T20:31:06.431Z,1.42
2023-01-29T20:33:37.026Z,1.45
2023-01-29T20:36:10.087Z,1.51
2023-01-29T20:38:39.052Z,1.44
2023-01-29T20:41:10.144Z,1.38
2023-01-29T20:43:38.699Z,1.30
2023-01-29T20:46:07.429Z,1.24
2023-01-29T20:48:35.801Z,1.26
2023-01-29T20:51:06.631Z,1.29
2023-01-29T20:53:35.439Z,1.23
2023-01-29T20:56:04.809Z,1.16
2023-01-29T20:58:35.020Z,1.23
2023-01-29T21:01:08.770Z,1.28
2023-01-29T21:03:37.429Z,1.19
2023-01-29T21:06:06.517Z,1.28
2023-01-29T21:08:35.341Z,1.21
2023-01-29T21:11:03.970Z,1.15
2023-01-29T21:13:32.579Z,1.20
2023-01-29T21:16:03.204Z,1.17
2023-01-29T21:18:32.287Z,1.28
2023-01-29T21:21:00.728Z,1.21
2023-01-29T21:23:29.133Z,1.18
2023-01-29T21:26:02.528Z,1.22
2023-01-29T21:28:31.133Z,1.26
2023-01-29T21:31:10.375Z,1.26
2023-01-29T21:33:39.091Z,1.30
2023-01-29T21:36:10.032Z,1.29
2023-01-29T21:38:38.719Z,1.21
2023-01-29T21:41:09.950Z,1.25
2023-01-29T21:43:37.570Z,1.25
2023-01-29T21:46:11.814Z,1.19
2023-01-29T21:48:40.922Z,1.27
2023-01-29T21:51:09.825Z,1.14
2023-01-29T21:53:38.142Z,1.19
2023-01-29T21:56:07.570Z,1.11
2023-01-29T21:58:35.912Z,1.13
2023-01-29T22:01:35.895Z,1.14
2023-01-29T22:03:54.166Z,1.06
2023-01-29T22:06:22.598Z,1.08
2023-01-29T22:08:51.061Z,1.12
2023-01-29T22:11:19.735Z,1.09
2023-01-29T22:13:48.209Z,1.05
2023-01-29T22:16:16.556Z,1.12
2023-01-29T22:18:44.880Z,1.08
2023-01-29T22:21:14.622Z,1.10
2023-01-29T22:23:42.949Z,1.06
2023-01-29T22:26:12.224Z,0.98
2023-01-29T22:28:40.597Z,1.02
2023-01-29T22:31:08.998Z,1.04
2023-01-29T22:33:37.637Z,1.11
2023-01-29T22:36:06.690Z,1.01
2023-01-29T22:38:36.483Z,1.03
2023-01-29T22:41:05.501Z,1.11
2023-01-29T22:43:33.836Z,1.05
2023-01-29T22:46:02.240Z,1.01
2023-01-29T22:48:30.819Z,1.12
2023-01-29T22:51:10.515Z,1.13
2023-01-29T22:53:42.041Z,1.05
2023-01-29T22:56:11.611Z,1.08
2023-01-29T22:58:41.137Z,1.11
2023-01-29T23:01:10.064Z,1.10
2023-01-29T23:03:38.486Z,1.10
2023-01-29T23:06:06.968Z,1.08
2023-01-29T23:08:35.353Z,1.14
2023-01-29T23:11:15.054Z,1.10
2023-01-29T23:13:44.995Z,1.12
2023-01-29T23:16:14.022Z,1.05
2023-01-29T23:18:42.705Z,1.04
2023-01-29T23:21:11.551Z,1.04
2023-01-29T23:23:40.478Z,1.00
2023-01-29T23:26:30.209Z,1.03
2023-01-29T23:28:58.957Z,1.05
2023-01-29T23:31:27.769Z,0.96
2023-01-29T23:33:56.645Z,0.99
2023-01-29T23:36:25.031Z,1.04
2023-01-29T23:38:53.377Z,1.14
2023-01-29T23:41:23.237Z,1.11
2023-01-29T23:43:52.736Z,1.08
2023-01-29T23:46:21.159Z,1.13
2023-01-29T23:48:49.597Z,1.15
2023-01-29T23:51:17.941Z,1.11
2023-01-29T23:53:46.433Z,1.15
2023-01-29T23:56:14.901Z,1.21
2023-01-29T23:58:45.074Z,1.11
